• Join FlightAware (Why Join?)
  • Login
  • US Flag 
06:48AM EDT


 

Airport Tracker/Info


-or-


 

Live Flight TrackerFlight Track Log ✈ DAL1355 ✈ 08-May-2013 ✈ KRNO - KSLC

Flight Track Log - Related Links

Times and Time Zones

All times are in EDT time to prevent confusion due to time zone crossing. See the DAL1355 flight status page for this flight to view local times or setup timezone preferences in your user account.

Time Position Orientation Groundspeed Altitude Reporting Facility
EDT Latitude Longitude Course Direction KTS MPH feet Rate Location/Type
03:08PM 39.4581 -119.7678 57° Northeast 169 194 37,000  Level Oakland Center
03:08PM 39.4333 -119.7333 133° Southeast 183 211 8,600 -10,260 Descending Northern Cal TRACON
03:10PM 39.6895 -119.3777 55° Northeast  Level FlightAware Approximate
03:10PM 39.4692 -119.6586 58° Northeast 179 206 10,800  Level Salt Lake Center
03:11PM 39.7614 -119.2495 49° Northeast  Level FlightAware Approximate
03:11PM 39.4956 -119.6175 50° Northeast 218 251 12,100  Level Oakland Center
03:12PM 39.8318 -119.1199 57° Northeast  Level FlightAware Approximate
03:12PM 39.5378 -119.5511 50° Northeast 236 272 14,900  Level Oakland Center
03:13PM 39.8984 -118.9866 57° Northeast  Level FlightAware Approximate
03:13PM 39.5803 -119.4792 53° Northeast 247 284 17,200  Level Oakland Center
03:14PM 39.6314 -119.3944 52° Northeast 297 342 17,800 780 Climbing Oakland Center
03:15PM 39.6944 -119.2914 51° Northeast 358 412 18,900 1,680 Climbing Oakland Center
03:16PM 39.7628 -119.1808 51° Northeast 384 442 21,300 2,040 Climbing Oakland Center
03:17PM 39.8308 -119.0689 52° Northeast 391 450 23,100 1,680 Climbing Oakland Center
03:18PM 39.9000 -118.9536 52° Northeast 398 458 24,800 1,560 Climbing Oakland Center
03:19PM 39.9703 -118.8356 52° Northeast 408 470 26,400 1,380 Climbing Oakland Center
03:20PM 40.0292 -118.7042 60° Northeast 423 487 27,700 1,260 Climbing Oakland Center
03:21PM 40.0736 -118.5606 68° East 425 489 29,000 1,140 Climbing Oakland Center
03:22PM 40.1178 -118.4158 68° East 427 491 30,100 1,320 Climbing Oakland Center
03:22PM 40.1497 -118.3181 67° East 428 493 31,200 1,440 Climbing Salt Lake Center
03:23PM 40.1633 -118.2717 69° East 428 493 31,600 1,380 Climbing Oakland Center
03:24PM 40.2158 -118.1000 68° East 424 488 33,200 1,260 Climbing Oakland Center
03:25PM 40.2528 -117.9769 68° East 420 483 34,200 840 Climbing Oakland Center
03:26PM 40.3006 -117.8189 68° East 419 482 35,000 540 Climbing Oakland Center
03:27PM 40.3289 -117.7278 68° East 420 483 35,100 420 Climbing Salt Lake Center
03:28PM 40.3697 -117.5925 68° East 419 482 35,700 780 Climbing Salt Lake Center
03:29PM 40.4189 -117.4306 68° East 424 488 36,800 600 Climbing Salt Lake Center
03:30PM 40.4597 -117.2936 69° East 422 486 37,000 60 Climbing Salt Lake Center
03:31PM 40.5011 -117.1547 69° East 423 487 37,000  Level Salt Lake Center
03:32PM 40.5492 -116.9922 69° East 423 487 37,000  Level Salt Lake Center
03:33PM 40.5744 -116.8450 77° East 424 488 37,000  Level Salt Lake Center
03:34PM 40.5831 -116.6947 86° East 425 489 37,000  Level Salt Lake Center
03:35PM 40.5933 -116.5208 85° East 426 490 37,000  Level Salt Lake Center
03:36PM 40.6022 -116.3708 85° East 427 491 37,000  Level Salt Lake Center
03:37PM 40.6125 -116.1961 86° East 427 491 37,000  Level Salt Lake Center
03:38PM 40.6214 -116.0467 85° East 428 493 37,000  Level Salt Lake Center
03:39PM 40.6286 -115.8967 86° East 428 493 37,000  Level Salt Lake Center
03:40PM 40.6375 -115.7233 86° East 426 490 37,000  Level Salt Lake Center
03:41PM 40.6461 -115.5733 86° East 428 493 37,000  Level Salt Lake Center
03:42PM 40.6539 -115.3986 87° East 428 493 37,000  Level Salt Lake Center
03:43PM 40.6608 -115.2458 87° East 434 499 37,000  Level Salt Lake Center
03:44PM 40.6692 -115.0728 86° East 427 491 37,000  Level Salt Lake Center
03:45PM 40.6772 -114.9217 86° East 430 495 37,000  Level Salt Lake Center
03:46PM 40.6856 -114.7722 86° East 429 494 37,000  Level Salt Lake Center
03:47PM 40.6928 -114.5961 87° East 430 495 37,000  Level Salt Lake Center
03:48PM 40.6989 -114.4447 87° East 431 496 37,000 -300 Level Salt Lake Center
03:49PM 40.7064 -114.2683 87° East 431 496 36,400 -780 Descending Salt Lake Center
03:50PM 40.7119 -114.1189 87° East 429 494 35,500 -840 Descending Salt Lake Center
03:51PM 40.7181 -113.9722 87° East 423 487 34,700 -1,080 Descending Salt Lake Center
03:52PM 40.7233 -113.8122 87° East 408 470 33,400 -2,520 Descending Salt Lake Center
03:53PM 40.7269 -113.6631 88° East 408 470 29,600 -3,540 Descending Salt Lake Center
03:54PM 40.7253 -113.5069 91° East 422 486 26,200 -3,060 Descending Salt Lake Center
03:55PM 40.7258 -113.3539 90° East 422 486 23,400 -1,980 Descending Salt Lake Center
03:56PM 40.7242 -113.2031 91° East 413 475 22,200 -2,280 Descending Salt Lake Center
03:57PM 40.7236 -113.0217 90° East 412 474 18,800 -2,520 Descending Salt Lake Center
03:58PM 40.7222 -112.8825 91° East 384 442 17,100 -900 Descending Salt Lake Center
03:59PM 40.7217 -112.7636 90° East 326 375 17,000 -120 Descending Salt Lake Center
04:00PM 40.7203 -112.6514 91° East 308 354 16,900 -900 Descending Salt Lake Center
04:01PM 40.7197 -112.5411 90° East 303 349 15,200 -1,560 Descending Salt Lake Center
04:02PM 40.7278 -112.5039 74° East 300 345 14,900 -780 Descending Salt Lake Center
04:03PM 40.7350 -112.4389 82° East 285 328 14,400 -840 Descending Salt Lake Center
04:03PM 40.7428 -112.4028 74° East 265 305 14,100 -1,020 Descending Salt Lake Center
04:04PM 40.7497 -112.3492 80° East 253 291 13,400 -1,380 Descending Salt Lake Center
04:04PM 40.7575 -112.3131 74° East 251 289 12,700 -1,380 Descending Salt Lake Center
04:05PM 40.7664 -112.2408 81° East 252 290 12,000 -900 Descending Salt Lake Center
04:05PM 40.7658 -112.2225 92° East 249 287 11,800 -1,680 Descending Salt Lake Center
04:06PM 40.7650 -112.1528 91° East 243 280 10,300 -2,220 Descending Salt Lake Center
04:06PM 40.7553 -112.1356 127° Southeast 248 285 9,600 -1,680 Descending Salt Lake Center
04:07PM 40.7186 -112.0892 136° Southeast 240 276 8,600 -1,080 Descending Salt Lake Center
04:08PM 40.6664 -112.0389 144° Southeast 236 272 7,700 -900 Descending Salt Lake Center